Prince Madog — ZNLJ5 — position and weather

sailwx.info

Track history (hours):
 
Tides and Currents Weather Stations Pressure Air Temp Water Temp Dewpoint Dewpoint Depression Visibility Wind Speed Wind Dir Waves Ship Positions

Oceanographic research ship Prince Madog (UK)

Detailed information on ship capabilities available from University of Delaware's Ocean Information Center.

Last reported at 2020-Mar-20 12:43 UTC. Time now 2020-Apr-03 08:18 UTC.
Position N 53°18' W 004°02'.
Warning: this ship's position is 13 days out of date.

Length 35 m; draft 3.9 m.

Type: Ship. MMSI: 235234000.

Date/timePositionNaut miles runAvg speedWind from/ knotsBaromVisibWave heightAir tempDewpointWater temp
2020-Mar-20 12:43N 53°18' W 004°02'10 1.5
2020-Mar-20 06:00N 53°28' W 004°02'2 3.6
2020-Mar-20 05:30N 53°27' W 004°05'3 1.2
2020-Mar-20 03:00N 53°28' W 003°60'1 3.0
2020-Mar-20 02:30N 53°28' W 004°02'77 7.4
2020-Mar-19 16:05N 54°34' W 005°09'16 9.8
2020-Mar-19 14:29N 54°49' W 005°15'  
2020-Mar-15 22:30N 54°37' W 005°08'4 8.6
2020-Mar-15 22:00N 54°32' W 005°07'5 8.8
2020-Mar-15 21:28N 54°28' W 005°05'  
2020-Mar-12 14:53N 53°22' W 004°04'10 3.1
2020-Mar-12 11:43N 53°29' W 003°53'  
Track history (hours):
 
Tides and Currents Weather Stations Pressure Air Temp Water Temp Dewpoint Dewpoint Depression Visibility Wind Speed Wind Dir Waves Ship Positions

Oceanographic research ship Prince Madog (UK)

Detailed information on ship capabilities available from University of Delaware's Ocean Information Center.

Last reported at 2020-Mar-20 12:43 UTC. Time now 2020-Apr-03 08:18 UTC.
Position N 53°18' W 004°02'.
Warning: this ship's position is 13 days out of date.

Length 35 m; draft 3.9 m.

Type: Ship. MMSI: 235234000.

Date/timePositionNaut miles runAvg speedWind from/ knotsBaromVisibWave heightAir tempDewpointWater temp
2020-Mar-20 12:43N 53°18' W 004°02'10 1.5
2020-Mar-20 06:00N 53°28' W 004°02'2 3.6
2020-Mar-20 05:30N 53°27' W 004°05'3 1.2
2020-Mar-20 03:00N 53°28' W 003°60'1 3.0
2020-Mar-20 02:30N 53°28' W 004°02'77 7.4
2020-Mar-19 16:05N 54°34' W 005°09'16 9.8
2020-Mar-19 14:29N 54°49' W 005°15'  
2020-Mar-15 22:30N 54°37' W 005°08'4 8.6
2020-Mar-15 22:00N 54°32' W 005°07'5 8.8
2020-Mar-15 21:28N 54°28' W 005°05'  
2020-Mar-12 14:53N 53°22' W 004°04'10 3.1
2020-Mar-12 11:43N 53°29' W 003°53'  

Dump ship's entire track history